createdAt,value
2018-09-15T00:00:00.587Z,60.04
2018-09-15T00:03:04.946Z,60.29
2018-09-15T00:06:08.218Z,60.25
2018-09-15T00:09:11.853Z,60.21
2018-09-15T00:12:15.161Z,60.40
2018-09-15T00:15:18.417Z,60.48
2018-09-15T00:18:21.711Z,60.49
2018-09-15T00:21:26.055Z,60.23
2018-09-15T00:24:29.340Z,60.28
2018-09-15T00:27:33.317Z,60.87
2018-09-15T00:30:36.691Z,60.30
2018-09-15T00:33:40.044Z,60.45
2018-09-15T00:36:43.352Z,60.88
2018-09-15T00:39:46.700Z,60.04
2018-09-15T00:42:50.068Z,58.86
2018-09-15T00:45:53.299Z,59.33
2018-09-15T00:48:56.646Z,59.21
2018-09-15T00:51:59.943Z,57.22
2018-09-15T00:55:03.839Z,57.54
2018-09-15T00:58:07.123Z,57.39
2018-09-15T01:01:10.398Z,57.15
2018-09-15T01:04:13.715Z,57.29
2018-09-15T01:07:17.079Z,57.46
2018-09-15T01:10:20.291Z,57.65
2018-09-15T01:13:23.651Z,57.78
2018-09-15T01:16:27.159Z,57.26
2018-09-15T01:19:30.455Z,57.80
2018-09-15T01:22:34.219Z,58.27
2018-09-15T01:25:37.539Z,57.06
2018-09-15T01:28:40.872Z,57.48
2018-09-15T01:31:44.147Z,57.25
2018-09-15T01:34:47.444Z,56.25
2018-09-15T01:37:50.704Z,56.42
2018-09-15T01:40:54.008Z,55.48
2018-09-15T01:43:57.207Z,55.75
2018-09-15T01:47:00.524Z,56.26
2018-09-15T01:50:04.553Z,56.35
2018-09-15T01:53:07.857Z,56.07
2018-09-15T01:56:11.096Z,56.72
2018-09-15T01:59:14.324Z,56.07
2018-09-15T02:02:17.627Z,55.19
2018-09-15T02:05:20.899Z,55.68
2018-09-15T02:08:24.080Z,55.67
2018-09-15T02:11:27.404Z,55.90
2018-09-15T02:14:30.907Z,56.63
2018-09-15T02:17:34.894Z,56.67
2018-09-15T02:20:38.176Z,56.68
2018-09-15T02:23:41.502Z,57.17
2018-09-15T02:26:44.707Z,57.25
2018-09-15T02:29:48.029Z,57.47
2018-09-15T02:32:51.272Z,57.69
2018-09-15T02:35:54.663Z,57.84
2018-09-15T02:38:57.962Z,57.99
2018-09-15T02:42:01.331Z,57.75
2018-09-15T02:45:04.993Z,58.01
2018-09-15T02:48:08.274Z,57.85
2018-09-15T02:51:11.508Z,58.24
2018-09-15T02:54:14.816Z,57.96
2018-09-15T02:57:18.103Z,58.74
2018-09-15T03:00:22.411Z,59.67
2018-09-15T03:03:25.617Z,59.98
2018-09-15T03:06:28.880Z,59.88
2018-09-15T03:09:32.105Z,60.48
2018-09-15T03:12:36.027Z,60.86
2018-09-15T03:15:39.392Z,61.25
2018-09-15T03:18:42.723Z,61.65
2018-09-15T03:21:46.016Z,62.73
2018-09-15T03:24:49.327Z,63.22
2018-09-15T03:27:52.612Z,63.33
2018-09-15T03:30:55.981Z,63.59
2018-09-15T03:34:01.254Z,63.71
2018-09-15T03:37:05.225Z,63.60
2018-09-15T03:40:08.638Z,63.66
2018-09-15T03:43:11.847Z,64.41
2018-09-15T03:46:15.143Z,64.91
2018-09-15T03:49:18.356Z,65.39
2018-09-15T03:52:21.514Z,65.68
2018-09-15T03:55:24.742Z,66.00
2018-09-15T03:58:28.039Z,65.88
2018-09-15T04:01:31.335Z,65.92
2018-09-15T04:04:35.219Z,66.41
2018-09-15T04:07:38.542Z,66.26
2018-09-15T04:10:42.081Z,67.23
2018-09-15T04:13:45.235Z,67.91
2018-09-15T04:16:48.521Z,68.28
2018-09-15T04:19:51.862Z,68.59
2018-09-15T04:22:55.111Z,69.32
2018-09-15T04:25:58.295Z,69.96
2018-09-15T04:29:01.705Z,69.88
2018-09-15T04:32:05.698Z,70.27
2018-09-15T04:35:10.094Z,70.29
2018-09-15T04:38:13.443Z,69.97
2018-09-15T04:41:16.812Z,69.83
2018-09-15T04:44:20.049Z,69.88
2018-09-15T04:47:23.316Z,69.68
2018-09-15T04:50:26.531Z,69.42
2018-09-15T04:53:29.707Z,69.08
2018-09-15T04:56:33.051Z,69.60
2018-09-15T04:59:36.443Z,69.83
2018-09-15T05:02:39.722Z,70.01
2018-09-15T05:05:43.020Z,70.28
2018-09-15T05:08:46.323Z,70.20
2018-09-15T05:11:49.511Z,69.47
2018-09-15T05:14:52.745Z,68.89
2018-09-15T05:17:56.011Z,69.10
2018-09-15T05:20:59.197Z,69.04
2018-09-15T05:24:02.500Z,68.59
2018-09-15T05:27:07.047Z,69.04
2018-09-15T05:30:10.362Z,70.11
2018-09-15T05:33:13.655Z,70.87
2018-09-15T05:36:16.917Z,71.32
2018-09-15T05:39:20.234Z,70.57
2018-09-15T05:42:23.503Z,70.98
2018-09-15T05:45:26.816Z,70.63
2018-09-15T05:48:30.049Z,69.51
2018-09-15T05:51:33.756Z,70.07
2018-09-15T05:54:38.108Z,69.92
2018-09-15T05:57:41.352Z,69.90
2018-09-15T06:00:44.709Z,70.80
2018-09-15T06:03:49.280Z,70.90
2018-09-15T06:06:52.623Z,70.90
2018-09-15T06:09:55.935Z,71.05
2018-09-15T06:12:59.275Z,70.44
2018-09-15T06:16:02.648Z,69.96
2018-09-15T06:19:06.617Z,70.62
2018-09-15T06:22:09.847Z,70.65
2018-09-15T06:25:13.099Z,70.38
2018-09-15T06:28:16.381Z,69.49
2018-09-15T06:31:19.747Z,70.57
2018-09-15T06:34:22.979Z,69.62
2018-09-15T06:37:26.273Z,70.17
2018-09-15T06:40:29.566Z,70.27
2018-09-15T06:43:32.847Z,69.52
2018-09-15T06:46:36.287Z,68.96
2018-09-15T06:49:39.545Z,68.69
2018-09-15T06:52:42.877Z,67.44
2018-09-15T06:55:46.169Z,66.82
2018-09-15T06:58:49.779Z,66.04
2018-09-15T07:01:53.086Z,64.93
2018-09-15T07:04:56.322Z,64.36
2018-09-15T07:07:59.535Z,62.96
2018-09-15T07:11:02.822Z,62.51
2018-09-15T07:14:07.195Z,62.71
2018-09-15T07:17:10.451Z,62.11
2018-09-15T07:20:13.822Z,61.34
2018-09-15T07:23:17.031Z,60.91
2018-09-15T07:26:20.251Z,60.03
2018-09-15T07:29:23.571Z,59.59
2018-09-15T07:32:27.182Z,58.52
2018-09-15T07:35:30.454Z,57.93
2018-09-15T07:38:34.003Z,58.45
2018-09-15T07:41:37.466Z,57.13
2018-09-15T07:44:40.858Z,56.53
2018-09-15T07:47:44.174Z,56.63
2018-09-15T07:50:47.459Z,56.48
2018-09-15T07:53:50.735Z,56.15
2018-09-15T07:56:54.036Z,57.01
2018-09-15T07:59:57.347Z,56.69
2018-09-15T08:03:00.700Z,56.72
2018-09-15T08:06:04.173Z,56.50
2018-09-15T08:09:08.656Z,55.01
2018-09-15T08:12:11.902Z,54.09
2018-09-15T08:15:16.207Z,54.31
2018-09-15T08:18:19.508Z,54.17
2018-09-15T08:21:22.885Z,54.19
2018-09-15T08:24:26.207Z,53.79
2018-09-15T08:27:29.455Z,54.41
2018-09-15T08:30:32.803Z,53.14
2018-09-15T08:33:36.204Z,53.41
2018-09-15T08:36:39.456Z,52.68
2018-09-15T08:39:42.679Z,53.07
2018-09-15T08:42:46.071Z,52.77
2018-09-15T08:45:50.924Z,52.24
2018-09-15T08:48:54.167Z,52.71
2018-09-15T08:51:57.525Z,52.97
2018-09-15T08:55:00.779Z,53.20
2018-09-15T08:58:04.065Z,52.88
2018-09-15T09:01:08.423Z,52.98
2018-09-15T09:04:11.939Z,52.84
2018-09-15T09:07:15.183Z,52.72
2018-09-15T09:10:18.603Z,52.17
2018-09-15T09:13:21.875Z,52.38
2018-09-15T09:16:25.107Z,52.06
2018-09-15T09:19:28.633Z,51.43
2018-09-15T09:22:32.958Z,51.55
2018-09-15T09:25:36.615Z,51.45
2018-09-15T09:28:39.961Z,50.72
2018-09-15T09:31:43.214Z,49.71
2018-09-15T09:34:46.528Z,49.11
2018-09-15T09:37:49.724Z,48.14
2018-09-15T09:40:53.172Z,47.65
2018-09-15T09:43:56.523Z,47.55
2018-09-15T09:46:59.871Z,47.66
2018-09-15T09:50:03.243Z,46.46
2018-09-15T09:53:07.371Z,46.55
2018-09-15T09:56:10.759Z,46.56
2018-09-15T09:59:15.184Z,47.79
2018-09-15T10:02:23.916Z,47.12
2018-09-15T10:05:27.280Z,46.63
2018-09-15T10:08:31.269Z,46.07
2018-09-15T10:11:34.624Z,45.96
2018-09-15T10:14:41.121Z,45.91
2018-09-15T10:17:45.393Z,46.50
2018-09-15T10:20:48.787Z,44.86
2018-09-15T10:23:53.039Z,43.94
2018-09-15T10:26:56.283Z,42.17
2018-09-15T10:29:59.588Z,40.83
2018-09-15T10:33:02.865Z,39.11
2018-09-15T10:36:06.118Z,40.98
2018-09-15T10:39:10.446Z,39.99
2018-09-15T10:42:13.844Z,40.46
2018-09-15T10:45:17.281Z,39.59
2018-09-15T10:48:21.724Z,38.00
2018-09-15T10:51:25.142Z,37.77
2018-09-15T10:54:28.427Z,37.12
2018-09-15T10:57:31.708Z,37.72
2018-09-15T11:00:35.034Z,36.52
2018-09-15T11:03:39.211Z,36.64
2018-09-15T11:06:42.564Z,36.14
2018-09-15T11:09:46.355Z,35.99
2018-09-15T11:12:49.544Z,36.05
2018-09-15T11:15:53.376Z,37.06
2018-09-15T11:18:57.067Z,38.22
2018-09-15T11:22:00.628Z,37.87
2018-09-15T11:25:03.870Z,38.37
2018-09-15T11:28:08.195Z,39.53
2018-09-15T11:31:11.739Z,40.39
2018-09-15T11:34:15.368Z,40.72
2018-09-15T11:37:18.642Z,40.94
2018-09-15T11:40:22.021Z,39.60
2018-09-15T11:43:25.291Z,39.35
2018-09-15T11:46:28.564Z,39.06
2018-09-15T11:49:31.852Z,38.28
2018-09-15T11:52:36.545Z,37.80
2018-09-15T11:55:39.788Z,38.48
2018-09-15T11:58:42.919Z,38.91
2018-09-15T12:01:46.204Z,38.93
2018-09-15T12:04:49.639Z,38.45
2018-09-15T12:07:53.027Z,39.29
2018-09-15T12:10:56.151Z,38.45
2018-09-15T12:13:59.434Z,38.87
2018-09-15T12:17:02.761Z,39.31
2018-09-15T12:20:06.683Z,39.28
2018-09-15T12:23:11.040Z,39.55
2018-09-15T12:26:14.339Z,39.70
2018-09-15T12:29:17.675Z,38.84
2018-09-15T12:32:20.948Z,38.24
2018-09-15T12:35:24.383Z,38.41
2018-09-15T12:38:27.721Z,37.84
2018-09-15T12:41:30.871Z,38.04
2018-09-15T12:47:37.094Z,39.23
2018-09-15T12:50:40.580Z,39.28
2018-09-15T12:53:44.115Z,39.65
2018-09-15T12:56:47.463Z,40.31
2018-09-15T12:59:51.038Z,39.96
2018-09-15T13:02:54.784Z,40.49
2018-09-15T13:05:58.136Z,40.29
2018-09-15T13:09:01.489Z,40.13
2018-09-15T13:12:04.659Z,40.70
2018-09-15T13:15:07.893Z,39.80
2018-09-15T13:18:11.256Z,39.54
2018-09-15T13:21:14.483Z,39.33
2018-09-15T13:24:17.688Z,39.45
2018-09-15T13:27:20.994Z,39.46
2018-09-15T13:30:25.259Z,38.94
2018-09-15T13:33:28.328Z,38.30
2018-09-15T13:36:31.572Z,38.43
2018-09-15T13:39:34.881Z,36.23
2018-09-15T13:42:38.195Z,36.01
2018-09-15T13:45:41.356Z,35.45
2018-09-15T13:48:44.660Z,36.15
2018-09-15T13:51:47.970Z,35.31
2018-09-15T13:54:51.294Z,35.90
2018-09-15T13:57:55.508Z,34.86
2018-09-15T14:00:58.895Z,34.44
2018-09-15T14:04:02.235Z,34.76
2018-09-15T14:07:05.862Z,34.28
2018-09-15T14:10:09.454Z,34.65
2018-09-15T14:13:12.696Z,34.68
2018-09-15T14:16:16.129Z,34.22
2018-09-15T14:19:19.379Z,34.77
2018-09-15T14:22:23.299Z,35.46
2018-09-15T14:25:26.650Z,35.48
2018-09-15T14:28:29.913Z,34.54
2018-09-15T14:31:33.114Z,35.26
2018-09-15T14:34:36.677Z,35.03
2018-09-15T14:37:40.144Z,34.52
2018-09-15T14:40:43.429Z,33.93
2018-09-15T14:43:46.947Z,34.21
2018-09-15T14:46:50.324Z,34.27
2018-09-15T14:49:54.271Z,33.91
2018-09-15T14:52:57.554Z,33.75
2018-09-15T14:56:00.911Z,34.18
2018-09-15T14:59:04.222Z,34.46
2018-09-15T15:02:07.741Z,33.79
2018-09-15T15:05:11.214Z,34.41
2018-09-15T15:08:14.508Z,33.63
2018-09-15T15:11:17.795Z,33.17
2018-09-15T15:14:20.938Z,32.72
2018-09-15T15:17:25.132Z,32.55
2018-09-15T15:20:28.297Z,33.12
2018-09-15T15:23:31.739Z,32.86
2018-09-15T15:26:35.109Z,32.12
2018-09-15T15:29:40.142Z,33.01
2018-09-15T15:32:43.571Z,33.71
2018-09-15T15:35:47.218Z,34.43
2018-09-15T15:38:50.528Z,33.84
2018-09-15T15:41:55.492Z,34.71
2018-09-15T15:44:58.699Z,34.04
2018-09-15T15:48:02.136Z,33.69
2018-09-15T15:51:05.431Z,33.60
2018-09-15T15:54:08.824Z,33.76
2018-09-15T15:57:12.131Z,33.50
2018-09-15T16:00:15.575Z,33.18
2018-09-15T16:03:18.949Z,33.71
2018-09-15T16:06:22.526Z,33.88
2018-09-15T16:09:26.828Z,34.08
2018-09-15T16:12:30.129Z,33.47
2018-09-15T16:15:33.642Z,33.92
2018-09-15T16:18:36.886Z,34.35
2018-09-15T16:21:40.100Z,34.07
2018-09-15T16:24:43.411Z,34.86
2018-09-15T16:27:46.971Z,35.29
2018-09-15T16:30:50.434Z,35.44
2018-09-15T16:33:54.353Z,34.91
2018-09-15T16:36:57.702Z,35.65
2018-09-15T16:40:01.204Z,35.50
2018-09-15T16:43:04.452Z,35.94
2018-09-15T16:46:07.848Z,36.10
2018-09-15T16:49:11.124Z,36.39
2018-09-15T16:52:14.470Z,36.38
2018-09-15T16:55:17.728Z,36.33
2018-09-15T16:58:20.995Z,36.52
2018-09-15T17:01:25.060Z,37.05
2018-09-15T17:04:28.330Z,36.90
2018-09-15T17:07:31.611Z,37.40
2018-09-15T17:10:34.915Z,37.75
2018-09-15T17:13:38.164Z,37.40
2018-09-15T17:16:41.715Z,37.95
2018-09-15T17:19:45.115Z,38.33
2018-09-15T17:22:48.718Z,38.61
2018-09-15T17:25:52.068Z,38.88
2018-09-15T17:28:55.319Z,39.16
2018-09-15T17:31:58.695Z,39.48
2018-09-15T17:35:02.024Z,39.50
2018-09-15T17:38:05.324Z,40.67
2018-09-15T17:41:08.594Z,41.72
2018-09-15T17:44:13.067Z,42.09
2018-09-15T17:47:16.316Z,42.65
2018-09-15T17:50:19.618Z,43.03
2018-09-15T17:53:22.964Z,43.38
2018-09-15T17:56:26.362Z,43.81
2018-09-15T17:59:29.650Z,44.19
2018-09-15T18:02:33.918Z,44.50
2018-09-15T18:05:37.288Z,44.70
2018-09-15T18:08:40.563Z,45.19
2018-09-15T18:11:44.773Z,45.94
2018-09-15T18:14:48.092Z,46.48
2018-09-15T18:17:51.496Z,47.03
2018-09-15T18:20:54.736Z,47.54
2018-09-15T18:23:58.246Z,47.82
2018-09-15T18:27:01.566Z,48.46
2018-09-15T18:30:05.497Z,48.48
2018-09-15T18:33:08.778Z,48.98
2018-09-15T18:36:12.152Z,49.18
2018-09-15T18:39:16.717Z,49.29
2018-09-15T18:42:20.021Z,50.03
2018-09-15T18:45:23.516Z,50.21
2018-09-15T18:48:27.795Z,50.90
2018-09-15T18:51:31.017Z,51.12
2018-09-15T18:54:35.377Z,50.96
2018-09-15T18:57:38.647Z,51.10
2018-09-15T19:00:41.936Z,51.17
2018-09-15T19:03:45.978Z,51.32
2018-09-15T19:06:49.223Z,51.49
2018-09-15T19:09:52.490Z,52.22
2018-09-15T19:12:56.877Z,52.53
2018-09-15T19:16:00.159Z,52.37
2018-09-15T19:19:03.471Z,53.53
2018-09-15T19:22:06.886Z,53.75
2018-09-15T19:25:10.271Z,54.13
2018-09-15T19:28:13.524Z,53.94
2018-09-15T19:31:16.743Z,54.51
2018-09-15T19:34:20.067Z,54.68
2018-09-15T19:37:23.327Z,54.92
2018-09-15T19:40:26.531Z,54.85
2018-09-15T19:43:29.864Z,54.71
2018-09-15T19:46:34.139Z,54.96
2018-09-15T19:49:37.503Z,55.29
2018-09-15T19:52:40.830Z,55.15
2018-09-15T19:55:44.180Z,55.34
2018-09-15T19:58:48.424Z,54.95
2018-09-15T20:01:51.647Z,54.43
2018-09-15T20:04:55.040Z,53.86
2018-09-15T20:07:58.257Z,53.44
2018-09-15T20:11:01.439Z,53.88
2018-09-15T20:14:04.751Z,53.57
2018-09-15T20:17:06.907Z,53.92
2018-09-15T20:20:09.121Z,54.83
2018-09-15T20:23:12.393Z,55.69
2018-09-15T20:26:16.752Z,56.17
2018-09-15T20:29:20.028Z,56.71
2018-09-15T20:32:23.286Z,56.73
2018-09-15T20:35:26.516Z,56.90
2018-09-15T20:38:29.916Z,57.02
2018-09-15T20:41:33.247Z,57.25
2018-09-15T20:44:36.575Z,57.35
2018-09-15T20:47:40.055Z,57.01
2018-09-15T20:50:43.309Z,56.67
2018-09-15T20:53:47.627Z,56.44
2018-09-15T20:56:50.899Z,56.34
2018-09-15T20:59:54.234Z,55.81
2018-09-15T21:02:57.525Z,55.96
2018-09-15T21:06:01.052Z,55.63
2018-09-15T21:09:06.385Z,55.94
2018-09-15T21:12:09.689Z,55.74
2018-09-15T21:15:12.811Z,56.00
2018-09-15T21:18:16.724Z,56.10
2018-09-15T21:21:19.968Z,56.13
2018-09-15T21:24:23.267Z,56.46
2018-09-15T21:27:26.543Z,56.19
2018-09-15T21:30:29.715Z,56.78
2018-09-15T21:33:33.080Z,56.81
2018-09-15T21:36:36.371Z,56.83
2018-09-15T21:39:39.743Z,56.71
2018-09-15T21:42:43.014Z,56.73
2018-09-15T21:45:46.915Z,56.89
2018-09-15T21:48:50.296Z,56.66
2018-09-15T21:51:53.578Z,56.93
2018-09-15T21:54:56.855Z,57.35
2018-09-15T21:58:00.145Z,57.12
2018-09-15T22:01:04.898Z,57.79
2018-09-15T22:04:13.526Z,58.17
2018-09-15T22:07:17.911Z,58.67
2018-09-15T22:10:21.202Z,59.33
2018-09-15T22:13:25.564Z,60.27
2018-09-15T22:16:28.945Z,61.30
2018-09-15T22:19:33.363Z,62.26
2018-09-15T22:22:36.781Z,63.17
2018-09-15T22:25:41.063Z,63.57
2018-09-15T22:28:44.493Z,63.75
2018-09-15T22:31:47.896Z,63.38
2018-09-15T22:34:51.294Z,63.45
2018-09-15T22:37:55.423Z,63.35
2018-09-15T22:40:58.827Z,63.42
2018-09-15T22:44:02.183Z,63.26
2018-09-15T22:47:05.563Z,63.55
2018-09-15T22:50:09.268Z,63.66
2018-09-15T22:53:13.536Z,63.90
2018-09-15T22:56:16.849Z,64.37
2018-09-15T22:59:20.149Z,64.33
2018-09-15T23:02:23.430Z,64.15
2018-09-15T23:05:27.974Z,64.18
2018-09-15T23:08:31.249Z,64.36
2018-09-15T23:11:34.569Z,64.11
2018-09-15T23:14:37.712Z,64.61
2018-09-15T23:17:45.259Z,64.78
2018-09-15T23:20:48.874Z,64.47
2018-09-15T23:23:52.340Z,64.34
2018-09-15T23:26:55.857Z,64.85
2018-09-15T23:29:59.145Z,65.24
2018-09-15T23:33:02.474Z,65.58
2018-09-15T23:36:06.080Z,65.57
2018-09-15T23:39:10.191Z,65.39
2018-09-15T23:42:13.451Z,66.23
2018-09-15T23:45:16.748Z,65.95
2018-09-15T23:48:19.943Z,66.30
2018-09-15T23:51:23.254Z,65.58
2018-09-15T23:54:26.549Z,65.60
2018-09-15T23:57:29.831Z,65.74
